Terminal Aerodrome Forecast
Issued by NWS Sioux Falls, SD

Home | Current Version | Previous Version | Text Only | Print | Product List | Glossary On
Versions: 1 2 3 4 5 6 7 8 9 10 11 12 13
155
FTUS43 KFSD 132320
TAFFSD
TAF
KFSD 132320Z 1400/1424 34012G23KT P6SM -RASN BKN020 OVC030
     FM140230 35008G14KT P6SM VCSH SCT030 OVC035
     FM140600 35008KT P6SM SCT030 OVC035
     FM141900 30010KT P6SM VCSH OVC020=

USA.gov is the U.S. government's official web portal to all federal, state and local government web resources and services.